sensor_id;sensor_type;location;lat;lon;timestamp;P1;durP1;ratioP1;P2;durP2;ratioP2
62509;SDS011;48558;48.242;11.654;2023-07-13T00:00:57;3.25;;;2.65;;
62509;SDS011;48558;48.242;11.654;2023-07-13T00:05:09;4.40;;;2.60;;
62509;SDS011;48558;48.242;11.654;2023-07-13T00:09:22;3.78;;;2.85;;
62509;SDS011;48558;48.242;11.654;2023-07-13T00:13:35;5.13;;;3.22;;
62509;SDS011;48558;48.242;11.654;2023-07-13T00:17:50;7.65;;;3.00;;
62509;SDS011;48558;48.242;11.654;2023-07-13T00:22:07;2.90;;;2.60;;
62509;SDS011;48558;48.242;11.654;2023-07-13T00:26:20;4.25;;;3.10;;
62509;SDS011;48558;48.242;11.654;2023-07-13T00:30:32;4.68;;;2.60;;
62509;SDS011;48558;48.242;11.654;2023-07-13T00:34:45;5.75;;;2.88;;
62509;SDS011;48558;48.242;11.654;2023-07-13T00:38:57;3.75;;;2.90;;
62509;SDS011;48558;48.242;11.654;2023-07-13T00:43:12;3.10;;;2.78;;
62509;SDS011;48558;48.242;11.654;2023-07-13T00:47:28;3.10;;;2.80;;
62509;SDS011;48558;48.242;11.654;2023-07-13T00:51:45;7.95;;;2.58;;
62509;SDS011;48558;48.242;11.654;2023-07-13T00:56:06;5.47;;;2.50;;
62509;SDS011;48558;48.242;11.654;2023-07-13T01:00:20;5.53;;;3.08;;
62509;SDS011;48558;48.242;11.654;2023-07-13T01:04:34;4.85;;;2.83;;
62509;SDS011;48558;48.242;11.654;2023-07-13T01:08:47;3.08;;;2.75;;
62509;SDS011;48558;48.242;11.654;2023-07-13T01:13:00;3.33;;;2.50;;
62509;SDS011;48558;48.242;11.654;2023-07-13T01:17:13;3.22;;;2.60;;
62509;SDS011;48558;48.242;11.654;2023-07-13T01:21:28;2.75;;;2.47;;
62509;SDS011;48558;48.242;11.654;2023-07-13T01:25:42;4.70;;;2.70;;
62509;SDS011;48558;48.242;11.654;2023-07-13T01:29:54;4.13;;;2.75;;
62509;SDS011;48558;48.242;11.654;2023-07-13T01:34:14;5.93;;;2.75;;
62509;SDS011;48558;48.242;11.654;2023-07-13T01:38:26;8.80;;;2.83;;
62509;SDS011;48558;48.242;11.654;2023-07-13T01:42:39;4.30;;;2.75;;
62509;SDS011;48558;48.242;11.654;2023-07-13T01:46:53;5.30;;;2.78;;
62509;SDS011;48558;48.242;11.654;2023-07-13T01:51:06;3.03;;;2.70;;
62509;SDS011;48558;48.242;11.654;2023-07-13T01:55:18;4.70;;;2.45;;
62509;SDS011;48558;48.242;11.654;2023-07-13T01:59:32;4.30;;;2.78;;
62509;SDS011;48558;48.242;11.654;2023-07-13T02:03:45;5.03;;;2.42;;
62509;SDS011;48558;48.242;11.654;2023-07-13T02:07:58;4.00;;;2.72;;
62509;SDS011;48558;48.242;11.654;2023-07-13T02:12:11;5.30;;;3.45;;
62509;SDS011;48558;48.242;11.654;2023-07-13T02:16:23;2.80;;;2.50;;
62509;SDS011;48558;48.242;11.654;2023-07-13T02:20:36;2.70;;;2.42;;
62509;SDS011;48558;48.242;11.654;2023-07-13T02:24:49;3.30;;;2.95;;
62509;SDS011;48558;48.242;11.654;2023-07-13T02:29:02;4.25;;;2.72;;
62509;SDS011;48558;48.242;11.654;2023-07-13T02:33:14;3.03;;;2.72;;
62509;SDS011;48558;48.242;11.654;2023-07-13T02:37:27;2.85;;;2.65;;
62509;SDS011;48558;48.242;11.654;2023-07-13T02:41:40;3.28;;;2.50;;
62509;SDS011;48558;48.242;11.654;2023-07-13T02:45:53;2.80;;;2.60;;
62509;SDS011;48558;48.242;11.654;2023-07-13T02:50:05;3.35;;;3.00;;
62509;SDS011;48558;48.242;11.654;2023-07-13T02:54:22;6.93;;;3.20;;
62509;SDS011;48558;48.242;11.654;2023-07-13T02:58:34;5.68;;;3.42;;
62509;SDS011;48558;48.242;11.654;2023-07-13T03:02:48;6.75;;;3.70;;
62509;SDS011;48558;48.242;11.654;2023-07-13T03:07:01;5.40;;;3.88;;
62509;SDS011;48558;48.242;11.654;2023-07-13T03:11:16;10.05;;;3.78;;
62509;SDS011;48558;48.242;11.654;2023-07-13T03:15:31;5.93;;;4.38;;
62509;SDS011;48558;48.242;11.654;2023-07-13T03:19:44;4.18;;;3.53;;
62509;SDS011;48558;48.242;11.654;2023-07-13T03:23:56;8.82;;;4.70;;
62509;SDS011;48558;48.242;11.654;2023-07-13T03:28:09;6.32;;;4.25;;
62509;SDS011;48558;48.242;11.654;2023-07-13T03:32:22;3.90;;;3.50;;
62509;SDS011;48558;48.242;11.654;2023-07-13T03:36:35;4.50;;;4.10;;
62509;SDS011;48558;48.242;11.654;2023-07-13T03:40:47;5.25;;;4.00;;
62509;SDS011;48558;48.242;11.654;2023-07-13T03:45:00;4.03;;;3.40;;
62509;SDS011;48558;48.242;11.654;2023-07-13T03:49:14;4.75;;;4.10;;
62509;SDS011;48558;48.242;11.654;2023-07-13T03:53:26;4.30;;;3.90;;
62509;SDS011;48558;48.242;11.654;2023-07-13T03:57:39;6.88;;;3.85;;
62509;SDS011;48558;48.242;11.654;2023-07-13T04:01:51;6.07;;;3.70;;
62509;SDS011;48558;48.242;11.654;2023-07-13T04:06:07;5.40;;;3.80;;
62509;SDS011;48558;48.242;11.654;2023-07-13T04:10:27;8.35;;;4.05;;
62509;SDS011;48558;48.242;11.654;2023-07-13T04:14:39;4.38;;;3.75;;
62509;SDS011;48558;48.242;11.654;2023-07-13T04:18:52;5.32;;;3.75;;
62509;SDS011;48558;48.242;11.654;2023-07-13T04:23:12;3.70;;;3.13;;
62509;SDS011;48558;48.242;11.654;2023-07-13T04:27:25;4.57;;;3.28;;
62509;SDS011;48558;48.242;11.654;2023-07-13T04:31:38;4.35;;;3.22;;
62509;SDS011;48558;48.242;11.654;2023-07-13T04:35:51;5.00;;;3.15;;
62509;SDS011;48558;48.242;11.654;2023-07-13T04:40:08;3.95;;;3.45;;
62509;SDS011;48558;48.242;11.654;2023-07-13T04:44:24;4.10;;;3.50;;
62509;SDS011;48558;48.242;11.654;2023-07-13T04:48:36;2.92;;;2.72;;
62509;SDS011;48558;48.242;11.654;2023-07-13T04:52:50;3.03;;;2.55;;
62509;SDS011;48558;48.242;11.654;2023-07-13T04:57:03;3.20;;;2.70;;
62509;SDS011;48558;48.242;11.654;2023-07-13T05:01:20;8.45;;;3.15;;
62509;SDS011;48558;48.242;11.654;2023-07-13T05:05:32;4.43;;;2.70;;
62509;SDS011;48558;48.242;11.654;2023-07-13T05:09:46;3.67;;;2.78;;
62509;SDS011;48558;48.242;11.654;2023-07-13T05:13:58;4.65;;;3.42;;
62509;SDS011;48558;48.242;11.654;2023-07-13T05:18:11;4.47;;;2.80;;
62509;SDS011;48558;48.242;11.654;2023-07-13T05:22:23;4.60;;;2.78;;
62509;SDS011;48558;48.242;11.654;2023-07-13T05:26:36;2.60;;;2.40;;
62509;SDS011;48558;48.242;11.654;2023-07-13T05:30:49;3.38;;;3.00;;
62509;SDS011;48558;48.242;11.654;2023-07-13T05:35:02;3.65;;;2.80;;
62509;SDS011;48558;48.242;11.654;2023-07-13T05:39:15;2.85;;;2.65;;
62509;SDS011;48558;48.242;11.654;2023-07-13T05:43:28;3.50;;;2.65;;
62509;SDS011;48558;48.242;11.654;2023-07-13T05:47:41;2.90;;;2.60;;
62509;SDS011;48558;48.242;11.654;2023-07-13T05:51:53;7.22;;;3.15;;
62509;SDS011;48558;48.242;11.654;2023-07-13T05:56:06;4.75;;;3.53;;
62509;SDS011;48558;48.242;11.654;2023-07-13T06:00:19;2.92;;;2.70;;
62509;SDS011;48558;48.242;11.654;2023-07-13T06:04:32;5.35;;;2.90;;
62509;SDS011;48558;48.242;11.654;2023-07-13T06:08:44;2.90;;;2.58;;
62509;SDS011;48558;48.242;11.654;2023-07-13T06:13:00;4.63;;;2.80;;
62509;SDS011;48558;48.242;11.654;2023-07-13T06:17:13;2.85;;;2.50;;
62509;SDS011;48558;48.242;11.654;2023-07-13T06:21:25;4.57;;;3.30;;
62509;SDS011;48558;48.242;11.654;2023-07-13T06:25:39;3.20;;;2.60;;
62509;SDS011;48558;48.242;11.654;2023-07-13T06:29:52;4.53;;;2.42;;
62509;SDS011;48558;48.242;11.654;2023-07-13T06:34:05;3.25;;;2.40;;
62509;SDS011;48558;48.242;11.654;2023-07-13T06:38:17;2.22;;;2.00;;
62509;SDS011;48558;48.242;11.654;2023-07-13T06:42:30;3.00;;;1.73;;
62509;SDS011;48558;48.242;11.654;2023-07-13T06:46:42;3.20;;;2.03;;
62509;SDS011;48558;48.242;11.654;2023-07-13T06:50:55;4.90;;;2.03;;
62509;SDS011;48558;48.242;11.654;2023-07-13T06:55:08;3.58;;;2.15;;
62509;SDS011;48558;48.242;11.654;2023-07-13T06:59:21;3.67;;;1.90;;
62509;SDS011;48558;48.242;11.654;2023-07-13T07:03:33;3.10;;;2.05;;
62509;SDS011;48558;48.242;11.654;2023-07-13T07:07:46;6.45;;;1.98;;
62509;SDS011;48558;48.242;11.654;2023-07-13T07:11:59;4.32;;;2.03;;
62509;SDS011;48558;48.242;11.654;2023-07-13T07:16:15;7.65;;;2.13;;
62509;SDS011;48558;48.242;11.654;2023-07-13T07:20:29;3.63;;;2.30;;
62509;SDS011;48558;48.242;11.654;2023-07-13T07:24:42;5.22;;;2.00;;
62509;SDS011;48558;48.242;11.654;2023-07-13T07:28:55;2.33;;;1.92;;
62509;SDS011;48558;48.242;11.654;2023-07-13T07:33:10;4.18;;;2.10;;
62509;SDS011;48558;48.242;11.654;2023-07-13T07:37:23;5.90;;;2.15;;
62509;SDS011;48558;48.242;11.654;2023-07-13T07:41:56;4.50;;;1.73;;
62509;SDS011;48558;48.242;11.654;2023-07-13T07:46:09;3.20;;;2.08;;
62509;SDS011;48558;48.242;11.654;2023-07-13T07:50:22;3.42;;;2.10;;
62509;SDS011;48558;48.242;11.654;2023-07-13T07:54:34;5.05;;;1.90;;
62509;SDS011;48558;48.242;11.654;2023-07-13T07:58:50;4.60;;;1.70;;
62509;SDS011;48558;48.242;11.654;2023-07-13T08:03:05;5.32;;;1.83;;
62509;SDS011;48558;48.242;11.654;2023-07-13T08:07:21;2.00;;;1.70;;
62509;SDS011;48558;48.242;11.654;2023-07-13T08:11:34;4.90;;;1.67;;
62509;SDS011;48558;48.242;11.654;2023-07-13T08:15:49;7.55;;;1.98;;
62509;SDS011;48558;48.242;11.654;2023-07-13T08:20:02;3.25;;;1.70;;
62509;SDS011;48558;48.242;11.654;2023-07-13T08:24:16;4.97;;;1.85;;
62509;SDS011;48558;48.242;11.654;2023-07-13T08:28:30;2.72;;;1.83;;
62509;SDS011;48558;48.242;11.654;2023-07-13T08:32:44;2.10;;;1.65;;
62509;SDS011;48558;48.242;11.654;2023-07-13T08:36:57;7.00;;;2.35;;
62509;SDS011;48558;48.242;11.654;2023-07-13T08:41:14;4.22;;;1.58;;
62509;SDS011;48558;48.242;11.654;2023-07-13T08:50:23;2.45;;;1.52;;
62509;SDS011;48558;48.242;11.654;2023-07-13T08:54:45;2.45;;;1.88;;
62509;SDS011;48558;48.242;11.654;2023-07-13T08:59:11;2.30;;;1.63;;
62509;SDS011;48558;48.242;11.654;2023-07-13T09:03:37;2.42;;;1.63;;
62509;SDS011;48558;48.242;11.654;2023-07-13T09:17:37;2.25;;;1.35;;
62509;SDS011;48558;48.242;11.654;2023-07-13T09:22:03;3.03;;;1.50;;
62509;SDS011;48558;48.242;11.654;2023-07-13T09:26:23;3.03;;;1.60;;
62509;SDS011;48558;48.242;11.654;2023-07-13T09:35:29;1.35;;;1.10;;
62509;SDS011;48558;48.242;11.654;2023-07-13T09:39:44;3.67;;;1.75;;
62509;SDS011;48558;48.242;11.654;2023-07-13T09:44:16;2.55;;;1.33;;
62509;SDS011;48558;48.242;11.654;2023-07-13T09:48:42;5.00;;;1.70;;
62509;SDS011;48558;48.242;11.654;2023-07-13T09:52:54;4.95;;;1.70;;
62509;SDS011;48558;48.242;11.654;2023-07-13T09:57:17;3.35;;;1.30;;
62509;SDS011;48558;48.242;11.654;2023-07-13T10:01:48;8.50;;;1.35;;
62509;SDS011;48558;48.242;11.654;2023-07-13T10:06:03;3.85;;;1.38;;
62509;SDS011;48558;48.242;11.654;2023-07-13T10:10:31;8.18;;;1.48;;
62509;SDS011;48558;48.242;11.654;2023-07-13T10:14:44;2.38;;;1.38;;
62509;SDS011;48558;48.242;11.654;2023-07-13T10:19:17;5.03;;;1.73;;
62509;SDS011;48558;48.242;11.654;2023-07-13T10:23:36;3.70;;;1.52;;
62509;SDS011;48558;48.242;11.654;2023-07-13T10:27:50;2.17;;;1.42;;
62509;SDS011;48558;48.242;11.654;2023-07-13T10:32:10;3.47;;;2.03;;
62509;SDS011;48558;48.242;11.654;2023-07-13T10:45:16;2.50;;;1.38;;
62509;SDS011;48558;48.242;11.654;2023-07-13T10:49:33;3.60;;;1.98;;
62509;SDS011;48558;48.242;11.654;2023-07-13T10:54:11;1.40;;;1.30;;
62509;SDS011;48558;48.242;11.654;2023-07-13T10:58:36;2.63;;;1.70;;
62509;SDS011;48558;48.242;11.654;2023-07-13T11:02:55;1.77;;;1.40;;
62509;SDS011;48558;48.242;11.654;2023-07-13T11:07:20;3.17;;;1.83;;
62509;SDS011;48558;48.242;11.654;2023-07-13T11:11:41;1.45;;;1.35;;
62509;SDS011;48558;48.242;11.654;2023-07-13T11:15:54;2.95;;;1.50;;
62509;SDS011;48558;48.242;11.654;2023-07-13T11:20:19;3.13;;;1.77;;
62509;SDS011;48558;48.242;11.654;2023-07-13T11:29:35;2.60;;;1.60;;
62509;SDS011;48558;48.242;11.654;2023-07-13T11:33:53;3.10;;;1.60;;
62509;SDS011;48558;48.242;11.654;2023-07-13T11:38:16;2.33;;;1.42;;
62509;SDS011;48558;48.242;11.654;2023-07-13T11:42:33;1.73;;;1.60;;
62509;SDS011;48558;48.242;11.654;2023-07-13T11:46:49;3.55;;;1.48;;
62509;SDS011;48558;48.242;11.654;2023-07-13T11:51:22;4.20;;;1.23;;
62509;SDS011;48558;48.242;11.654;2023-07-13T11:55:39;2.70;;;1.27;;
62509;SDS011;48558;48.242;11.654;2023-07-13T11:59:52;1.85;;;1.50;;
62509;SDS011;48558;48.242;11.654;2023-07-13T12:04:08;1.98;;;1.60;;
62509;SDS011;48558;48.242;11.654;2023-07-13T12:08:37;9.13;;;1.73;;
62509;SDS011;48558;48.242;11.654;2023-07-13T12:12:53;6.07;;;1.35;;
62509;SDS011;48558;48.242;11.654;2023-07-13T12:17:15;6.72;;;1.42;;
62509;SDS011;48558;48.242;11.654;2023-07-13T12:21:33;2.97;;;1.50;;
62509;SDS011;48558;48.242;11.654;2023-07-13T12:25:50;4.50;;;1.52;;
62509;SDS011;48558;48.242;11.654;2023-07-13T12:30:05;1.55;;;1.40;;
62509;SDS011;48558;48.242;11.654;2023-07-13T12:34:50;3.13;;;1.20;;
62509;SDS011;48558;48.242;11.654;2023-07-13T12:39:14;3.72;;;1.60;;
62509;SDS011;48558;48.242;11.654;2023-07-13T12:43:45;2.38;;;1.52;;
62509;SDS011;48558;48.242;11.654;2023-07-13T12:48:19;3.45;;;1.50;;
62509;SDS011;48558;48.242;11.654;2023-07-13T12:52:53;1.45;;;1.35;;
62509;SDS011;48558;48.242;11.654;2023-07-13T12:57:13;1.77;;;1.30;;
62509;SDS011;48558;48.242;11.654;2023-07-13T13:01:30;3.88;;;1.55;;
62509;SDS011;48558;48.242;11.654;2023-07-13T13:05:49;1.33;;;1.20;;
62509;SDS011;48558;48.242;11.654;2023-07-13T13:10:04;2.00;;;1.15;;
62509;SDS011;48558;48.242;11.654;2023-07-13T13:14:24;1.40;;;1.30;;
62509;SDS011;48558;48.242;11.654;2023-07-13T13:18:37;2.05;;;1.20;;
62509;SDS011;48558;48.242;11.654;2023-07-13T13:22:50;3.35;;;1.45;;
62509;SDS011;48558;48.242;11.654;2023-07-13T13:27:04;2.38;;;1.30;;
62509;SDS011;48558;48.242;11.654;2023-07-13T13:31:21;1.38;;;1.10;;
62509;SDS011;48558;48.242;11.654;2023-07-13T13:35:34;2.65;;;1.30;;
62509;SDS011;48558;48.242;11.654;2023-07-13T13:39:46;5.22;;;1.35;;
62509;SDS011;48558;48.242;11.654;2023-07-13T13:44:18;1.75;;;1.33;;
62509;SDS011;48558;48.242;11.654;2023-07-13T13:48:33;1.38;;;1.17;;
62509;SDS011;48558;48.242;11.654;2023-07-13T13:52:50;1.67;;;1.40;;
62509;SDS011;48558;48.242;11.654;2023-07-13T13:57:03;1.92;;;1.42;;
62509;SDS011;48558;48.242;11.654;2023-07-13T14:01:20;2.20;;;1.40;;
62509;SDS011;48558;48.242;11.654;2023-07-13T14:05:35;2.45;;;1.40;;
62509;SDS011;48558;48.242;11.654;2023-07-13T14:09:47;1.50;;;1.40;;
62509;SDS011;48558;48.242;11.654;2023-07-13T14:14:00;4.57;;;1.33;;
62509;SDS011;48558;48.242;11.654;2023-07-13T14:18:15;1.90;;;1.30;;
62509;SDS011;48558;48.242;11.654;2023-07-13T14:22:30;3.53;;;1.38;;
62509;SDS011;48558;48.242;11.654;2023-07-13T14:26:43;1.33;;;1.23;;
62509;SDS011;48558;48.242;11.654;2023-07-13T14:30:58;3.15;;;1.50;;
62509;SDS011;48558;48.242;11.654;2023-07-13T14:35:14;3.25;;;1.63;;
62509;SDS011;48558;48.242;11.654;2023-07-13T14:39:30;1.63;;;1.20;;
62509;SDS011;48558;48.242;11.654;2023-07-13T14:43:44;3.65;;;1.20;;
62509;SDS011;48558;48.242;11.654;2023-07-13T14:47:57;3.42;;;1.30;;
62509;SDS011;48558;48.242;11.654;2023-07-13T14:52:14;2.55;;;1.60;;
62509;SDS011;48558;48.242;11.654;2023-07-13T14:56:38;3.55;;;1.42;;
62509;SDS011;48558;48.242;11.654;2023-07-13T15:00:50;1.60;;;1.38;;
62509;SDS011;48558;48.242;11.654;2023-07-13T15:05:12;4.95;;;1.38;;
62509;SDS011;48558;48.242;11.654;2023-07-13T15:09:36;1.85;;;1.38;;
62509;SDS011;48558;48.242;11.654;2023-07-13T15:13:49;1.98;;;1.08;;
62509;SDS011;48558;48.242;11.654;2023-07-13T15:18:03;1.65;;;1.30;;
62509;SDS011;48558;48.242;11.654;2023-07-13T15:22:15;2.10;;;1.23;;
62509;SDS011;48558;48.242;11.654;2023-07-13T15:26:28;1.83;;;1.30;;
62509;SDS011;48558;48.242;11.654;2023-07-13T15:30:43;1.88;;;1.40;;
62509;SDS011;48558;48.242;11.654;2023-07-13T15:35:00;5.25;;;1.25;;
62509;SDS011;48558;48.242;11.654;2023-07-13T15:39:14;1.55;;;1.35;;
62509;SDS011;48558;48.242;11.654;2023-07-13T15:43:31;2.05;;;1.30;;
62509;SDS011;48558;48.242;11.654;2023-07-13T15:47:46;2.22;;;1.70;;
62509;SDS011;48558;48.242;11.654;2023-07-13T15:52:00;1.75;;;1.27;;
62509;SDS011;48558;48.242;11.654;2023-07-13T15:56:17;2.00;;;1.45;;
62509;SDS011;48558;48.242;11.654;2023-07-13T16:00:35;1.90;;;1.33;;
62509;SDS011;48558;48.242;11.654;2023-07-13T16:04:51;2.15;;;1.25;;
62509;SDS011;48558;48.242;11.654;2023-07-13T16:09:03;4.72;;;1.77;;
62509;SDS011;48558;48.242;11.654;2023-07-13T16:13:19;1.85;;;1.20;;
62509;SDS011;48558;48.242;11.654;2023-07-13T16:17:32;2.72;;;1.60;;
62509;SDS011;48558;48.242;11.654;2023-07-13T16:21:46;2.25;;;1.40;;
62509;SDS011;48558;48.242;11.654;2023-07-13T16:26:02;2.70;;;1.40;;
62509;SDS011;48558;48.242;11.654;2023-07-13T16:30:24;2.30;;;1.10;;
62509;SDS011;48558;48.242;11.654;2023-07-13T16:34:39;1.48;;;1.38;;
62509;SDS011;48558;48.242;11.654;2023-07-13T16:38:55;2.25;;;1.40;;
62509;SDS011;48558;48.242;11.654;2023-07-13T16:43:08;1.73;;;1.42;;
62509;SDS011;48558;48.242;11.654;2023-07-13T16:47:25;1.67;;;1.40;;
62509;SDS011;48558;48.242;11.654;2023-07-13T16:51:38;1.85;;;1.38;;
62509;SDS011;48558;48.242;11.654;2023-07-13T16:55:50;1.75;;;1.10;;
62509;SDS011;48558;48.242;11.654;2023-07-13T17:00:15;1.88;;;1.33;;
62509;SDS011;48558;48.242;11.654;2023-07-13T17:04:39;1.42;;;1.33;;
62509;SDS011;48558;48.242;11.654;2023-07-13T17:08:53;3.65;;;1.40;;
62509;SDS011;48558;48.242;11.654;2023-07-13T17:13:07;1.88;;;1.17;;
62509;SDS011;48558;48.242;11.654;2023-07-13T17:17:25;2.70;;;1.50;;
62509;SDS011;48558;48.242;11.654;2023-07-13T17:21:44;1.42;;;1.33;;
62509;SDS011;48558;48.242;11.654;2023-07-13T17:25:58;2.30;;;1.33;;
62509;SDS011;48558;48.242;11.654;2023-07-13T17:30:15;2.67;;;1.10;;
62509;SDS011;48558;48.242;11.654;2023-07-13T17:34:31;1.20;;;1.10;;
62509;SDS011;48558;48.242;11.654;2023-07-13T17:38:46;2.00;;;1.27;;
62509;SDS011;48558;48.242;11.654;2023-07-13T17:43:08;1.50;;;1.30;;
62509;SDS011;48558;48.242;11.654;2023-07-13T17:47:24;1.52;;;1.40;;
62509;SDS011;48558;48.242;11.654;2023-07-13T17:51:39;2.00;;;1.38;;
62509;SDS011;48558;48.242;11.654;2023-07-13T17:55:51;2.50;;;1.30;;
62509;SDS011;48558;48.242;11.654;2023-07-13T18:00:04;2.47;;;1.20;;
62509;SDS011;48558;48.242;11.654;2023-07-13T18:04:39;1.83;;;1.35;;
62509;SDS011;48558;48.242;11.654;2023-07-13T18:08:53;2.90;;;1.20;;
62509;SDS011;48558;48.242;11.654;2023-07-13T18:13:08;1.40;;;1.30;;
62509;SDS011;48558;48.242;11.654;2023-07-13T18:17:20;6.55;;;1.52;;
62509;SDS011;48558;48.242;11.654;2023-07-13T18:21:34;1.85;;;1.45;;
62509;SDS011;48558;48.242;11.654;2023-07-13T18:25:46;4.22;;;1.88;;
62509;SDS011;48558;48.242;11.654;2023-07-13T18:30:00;4.88;;;1.67;;
62509;SDS011;48558;48.242;11.654;2023-07-13T18:34:13;4.68;;;1.50;;
62509;SDS011;48558;48.242;11.654;2023-07-13T18:38:26;2.20;;;1.42;;
62509;SDS011;48558;48.242;11.654;2023-07-13T18:42:41;2.10;;;1.20;;
62509;SDS011;48558;48.242;11.654;2023-07-13T18:46:55;1.67;;;1.52;;
62509;SDS011;48558;48.242;11.654;2023-07-13T18:51:09;4.70;;;1.52;;
62509;SDS011;48558;48.242;11.654;2023-07-13T18:55:23;1.67;;;1.48;;
62509;SDS011;48558;48.242;11.654;2023-07-13T18:59:37;2.67;;;1.60;;
62509;SDS011;48558;48.242;11.654;2023-07-13T19:03:49;1.85;;;1.40;;
62509;SDS011;48558;48.242;11.654;2023-07-13T19:08:04;2.65;;;1.60;;
62509;SDS011;48558;48.242;11.654;2023-07-13T19:12:29;2.33;;;1.42;;
62509;SDS011;48558;48.242;11.654;2023-07-13T19:16:43;3.40;;;1.60;;
62509;SDS011;48558;48.242;11.654;2023-07-13T19:20:56;4.20;;;1.77;;
62509;SDS011;48558;48.242;11.654;2023-07-13T19:25:12;3.70;;;1.52;;
62509;SDS011;48558;48.242;11.654;2023-07-13T19:29:27;2.58;;;1.73;;
62509;SDS011;48558;48.242;11.654;2023-07-13T19:33:41;3.53;;;1.60;;
62509;SDS011;48558;48.242;11.654;2023-07-13T19:37:54;4.82;;;1.77;;
62509;SDS011;48558;48.242;11.654;2023-07-13T19:42:13;1.67;;;1.50;;
62509;SDS011;48558;48.242;11.654;2023-07-13T19:46:35;3.70;;;1.90;;
62509;SDS011;48558;48.242;11.654;2023-07-13T19:50:48;4.00;;;1.80;;
62509;SDS011;48558;48.242;11.654;2023-07-13T19:55:01;3.60;;;1.98;;
62509;SDS011;48558;48.242;11.654;2023-07-13T19:59:28;3.17;;;1.80;;
62509;SDS011;48558;48.242;11.654;2023-07-13T20:03:43;4.70;;;1.85;;
62509;SDS011;48558;48.242;11.654;2023-07-13T20:07:56;2.03;;;1.63;;
62509;SDS011;48558;48.242;11.654;2023-07-13T20:12:12;6.45;;;1.73;;
62509;SDS011;48558;48.242;11.654;2023-07-13T20:16:27;3.40;;;1.90;;
62509;SDS011;48558;48.242;11.654;2023-07-13T20:20:40;3.22;;;1.48;;
62509;SDS011;48558;48.242;11.654;2023-07-13T20:24:57;7.45;;;2.10;;
62509;SDS011;48558;48.242;11.654;2023-07-13T20:29:10;3.40;;;2.00;;
62509;SDS011;48558;48.242;11.654;2023-07-13T20:33:24;3.50;;;1.77;;
62509;SDS011;48558;48.242;11.654;2023-07-13T20:37:40;4.50;;;2.30;;
62509;SDS011;48558;48.242;11.654;2023-07-13T20:41:54;4.68;;;1.80;;
62509;SDS011;48558;48.242;11.654;2023-07-13T20:46:09;3.92;;;2.10;;
62509;SDS011;48558;48.242;11.654;2023-07-13T20:50:27;2.20;;;1.80;;
62509;SDS011;48558;48.242;11.654;2023-07-13T20:54:41;4.18;;;2.30;;
62509;SDS011;48558;48.242;11.654;2023-07-13T20:58:56;2.83;;;1.80;;
62509;SDS011;48558;48.242;11.654;2023-07-13T21:03:27;5.28;;;2.15;;
62509;SDS011;48558;48.242;11.654;2023-07-13T21:07:40;7.55;;;2.30;;
62509;SDS011;48558;48.242;11.654;2023-07-13T21:11:53;5.20;;;2.25;;
62509;SDS011;48558;48.242;11.654;2023-07-13T21:16:16;3.28;;;2.33;;
62509;SDS011;48558;48.242;11.654;2023-07-13T21:20:36;2.30;;;2.20;;
62509;SDS011;48558;48.242;11.654;2023-07-13T21:24:51;5.25;;;2.03;;
62509;SDS011;48558;48.242;11.654;2023-07-13T21:29:04;20.45;;;2.50;;
62509;SDS011;48558;48.242;11.654;2023-07-13T21:33:17;6.07;;;2.38;;
62509;SDS011;48558;48.242;11.654;2023-07-13T21:37:30;3.85;;;1.90;;
62509;SDS011;48558;48.242;11.654;2023-07-13T21:41:43;3.58;;;2.20;;
62509;SDS011;48558;48.242;11.654;2023-07-13T21:45:56;2.72;;;1.98;;
62509;SDS011;48558;48.242;11.654;2023-07-13T21:50:09;4.53;;;2.28;;
62509;SDS011;48558;48.242;11.654;2023-07-13T21:54:22;3.03;;;2.30;;
62509;SDS011;48558;48.242;11.654;2023-07-13T21:58:35;2.47;;;2.28;;
62509;SDS011;48558;48.242;11.654;2023-07-13T22:02:50;3.45;;;2.13;;
62509;SDS011;48558;48.242;11.654;2023-07-13T22:07:09;2.15;;;2.00;;
62509;SDS011;48558;48.242;11.654;2023-07-13T22:11:23;3.63;;;1.90;;
62509;SDS011;48558;48.242;11.654;2023-07-13T22:15:37;4.45;;;2.10;;
62509;SDS011;48558;48.242;11.654;2023-07-13T22:19:51;4.63;;;2.20;;
62509;SDS011;48558;48.242;11.654;2023-07-13T22:24:05;2.92;;;1.92;;
62509;SDS011;48558;48.242;11.654;2023-07-13T22:28:26;2.35;;;2.15;;
62509;SDS011;48558;48.242;11.654;2023-07-13T22:32:39;2.63;;;2.40;;
62509;SDS011;48558;48.242;11.654;2023-07-13T22:36:53;2.25;;;2.05;;
62509;SDS011;48558;48.242;11.654;2023-07-13T22:41:16;2.40;;;2.10;;
62509;SDS011;48558;48.242;11.654;2023-07-13T22:45:30;2.08;;;1.98;;
62509;SDS011;48558;48.242;11.654;2023-07-13T22:49:43;6.45;;;2.40;;
62509;SDS011;48558;48.242;11.654;2023-07-13T22:53:55;2.08;;;1.95;;
62509;SDS011;48558;48.242;11.654;2023-07-13T22:58:08;3.08;;;2.80;;
62509;SDS011;48558;48.242;11.654;2023-07-13T23:02:21;2.72;;;2.50;;
62509;SDS011;48558;48.242;11.654;2023-07-13T23:06:34;2.72;;;2.47;;
62509;SDS011;48558;48.242;11.654;2023-07-13T23:10:48;4.30;;;2.30;;
62509;SDS011;48558;48.242;11.654;2023-07-13T23:15:04;2.47;;;2.38;;
62509;SDS011;48558;48.242;11.654;2023-07-13T23:19:19;5.00;;;2.33;;
62509;SDS011;48558;48.242;11.654;2023-07-13T23:23:43;3.22;;;2.45;;
62509;SDS011;48558;48.242;11.654;2023-07-13T23:27:56;2.88;;;2.50;;
62509;SDS011;48558;48.242;11.654;2023-07-13T23:32:10;6.43;;;2.70;;
62509;SDS011;48558;48.242;11.654;2023-07-13T23:36:23;4.43;;;2.50;;
62509;SDS011;48558;48.242;11.654;2023-07-13T23:40:37;5.93;;;2.55;;
62509;SDS011;48558;48.242;11.654;2023-07-13T23:44:49;3.15;;;2.65;;
62509;SDS011;48558;48.242;11.654;2023-07-13T23:49:09;2.95;;;2.25;;
62509;SDS011;48558;48.242;11.654;2023-07-13T23:53:25;5.20;;;2.25;;
62509;SDS011;48558;48.242;11.654;2023-07-13T23:57:40;4.00;;;2.85;;
